Time;durP1;ratioP1;P1;durP2;ratioP2;P2;SDS_P1;SDS_P2;PMS_P1;PMS_P2;Temp;Humidity;BMP_temperature;BMP_pressure;BME280_temperature;BME280_humidity;BME280_pressure;Samples;Min_cycle;Max_cycle;Signal;HPM_P1;HPM_P2
2021/03/31 00:02:03;;;;;;;5.70;3.60;;;16.00;1.00;;;;;;5068615;28;20478;-80
2021/03/31 00:04:30;;;;;;;4.05;3.60;;;16.00;1.00;;;;;;5068628;28;20476;-79
2021/03/31 00:06:57;;;;;;;7.70;3.80;;;15.90;1.00;;;;;;5066801;28;20223;-79
2021/03/31 00:09:25;;;;;;;4.50;3.80;;;16.00;1.00;;;;;;5061164;28;20445;-79
2021/03/31 00:11:52;;;;;;;4.80;4.23;;;15.90;1.00;;;;;;5060922;28;20480;-79
2021/03/31 00:14:20;;;;;;;5.20;3.47;;;15.90;9.90;;;;;;5068203;28;20461;-78
2021/03/31 00:16:47;;;;;;;4.30;3.57;;;15.90;1.00;;;;;;5063705;28;20946;-79
2021/03/31 00:19:14;;;;;;;5.77;3.53;;;15.80;1.00;;;;;;5067887;28;20872;-79
2021/03/31 00:21:41;;;;;;;5.20;2.87;;;15.70;1.00;;;;;;5066517;28;20544;-79
2021/03/31 00:24:10;;;;;;;9.03;3.20;;;15.60;1.00;;;;;;5061029;28;20451;-80
2021/03/31 00:26:37;;;;;;;11.93;3.60;;;15.60;1.00;;;;;;5071083;28;20462;-80
2021/03/31 00:29:05;;;;;;;3.97;2.87;;;15.60;1.00;;;;;;5063312;28;20453;-80
2021/03/31 00:31:33;;;;;;;4.13;2.83;;;15.70;1.00;;;;;;5071082;28;20462;-80
2021/03/31 00:34:00;;;;;;;6.37;3.23;;;15.60;1.00;;;;;;5068966;28;20480;-80
2021/03/31 00:36:27;;;;;;;4.83;3.27;;;15.60;1.00;;;;;;5066034;28;20540;-80
2021/03/31 00:38:55;;;;;;;4.07;3.70;;;15.50;1.00;;;;;;5066960;28;20447;-80
2021/03/31 00:41:22;;;;;;;5.03;3.50;;;15.50;1.00;;;;;;5063584;28;20584;-80
2021/03/31 00:43:49;;;;;;;6.77;3.80;;;15.50;1.00;;;;;;5061997;28;20494;-79
2021/03/31 00:46:16;;;;;;;7.27;4.20;;;15.50;1.00;;;;;;5057754;28;20447;-79
2021/03/31 00:48:44;;;;;;;6.60;3.93;;;15.50;1.00;;;;;;5065688;28;20964;-79
2021/03/31 00:51:12;;;;;;;5.43;3.87;;;15.40;1.00;;;;;;5068821;28;21018;-79
2021/03/31 00:53:42;;;;;;;4.93;4.50;;;15.40;1.00;;;;;;5064060;28;20485;-79
2021/03/31 00:56:10;;;;;;;4.07;2.60;;;15.30;1.00;;;;;;5066860;28;20459;-79
2021/03/31 00:58:39;;;;;;;5.67;3.70;;;15.30;1.00;;;;;;5053360;28;20445;-78
2021/03/31 01:01:06;;;;;;;5.97;2.80;;;15.30;1.00;;;;;;5069711;28;20477;-78
2021/03/31 01:03:33;;;;;;;4.73;3.33;;;15.20;1.00;;;;;;5064251;28;20457;-78
2021/03/31 01:06:01;;;;;;;4.57;3.40;;;15.20;1.00;;;;;;5059230;28;20441;-79
2021/03/31 01:08:29;;;;;;;4.17;3.07;;;15.20;1.00;;;;;;5068252;28;20453;-80
2021/03/31 01:10:58;;;;;;;5.03;3.83;;;15.10;1.00;;;;;;5069952;28;20476;-79
2021/03/31 01:13:44;;;;;;;4.37;3.50;;;15.10;1.00;;;;;;5062520;28;20489;-80
2021/03/31 01:16:25;;;;;;;4.73;3.10;;;15.00;1.00;;;;;;5064081;28;20469;-79
2021/03/31 01:18:58;;;;;;;4.17;3.23;;;15.00;1.00;;;;;;5062175;28;20462;-79
2021/03/31 01:22:13;;;;;;;5.20;3.00;;;15.00;1.00;;;;;;5066604;28;20538;-79
2021/03/31 01:25:15;;;;;;;6.43;3.70;;;14.90;1.00;;;;;;5053234;28;20515;-79
2021/03/31 01:28:29;;;;;;;5.37;2.83;;;14.90;1.00;;;;;;5059041;28;20452;-80
2021/03/31 01:31:04;;;;;;;9.20;3.57;;;14.90;1.00;;;;;;5032898;28;20488;-79
2021/03/31 01:34:05;;;;;;;4.20;2.93;;;14.80;1.00;;;;;;5069576;28;20472;-79
2021/03/31 01:36:33;;;;;;;6.77;3.30;;;14.80;1.00;;;;;;5060496;28;21109;-79
2021/03/31 01:39:04;;;;;;;7.60;2.63;;;14.80;1.00;;;;;;5055545;28;20468;-79
2021/03/31 01:41:33;;;;;;;3.50;2.67;;;14.80;1.00;;;;;;5061532;28;20489;-79
2021/03/31 01:44:02;;;;;;;4.07;2.93;;;14.80;1.00;;;;;;5065972;28;20460;-79
2021/03/31 01:46:32;;;;;;;4.57;3.00;;;14.80;1.00;;;;;;5054523;28;20445;-78
2021/03/31 01:49:02;;;;;;;2.80;2.23;;;14.70;1.00;;;;;;5068541;28;20503;-79
2021/03/31 01:51:30;;;;;;;3.20;2.93;;;14.60;1.00;;;;;;5066946;28;20476;-79
2021/03/31 01:53:59;;;;;;;4.13;3.20;;;14.50;1.00;;;;;;5064535;28;20442;-77
2021/03/31 01:56:27;;;;;;;4.60;2.90;;;14.50;1.00;;;;;;5058960;28;20212;-79
2021/03/31 01:58:56;;;;;;;5.20;3.67;;;14.50;1.00;;;;;;5051121;28;20474;-79
2021/03/31 02:01:25;;;;;;;3.93;3.37;;;14.50;1.00;;;;;;5067135;28;21134;-80
2021/03/31 02:03:55;;;;;;;4.07;3.23;;;14.50;1.00;;;;;;5059837;28;20537;-79
2021/03/31 02:06:23;;;;;;;3.47;3.17;;;14.50;1.00;;;;;;5064401;28;20483;-79
2021/03/31 02:08:50;;;;;;;3.13;2.63;;;14.50;1.00;;;;;;5068876;28;20438;-79
2021/03/31 02:11:25;;;;;;;3.73;3.30;;;14.50;1.00;;;;;;5067763;28;20474;-79
2021/03/31 02:13:53;;;;;;;3.10;2.80;;;14.50;1.00;;;;;;5065460;28;20488;-80
2021/03/31 02:16:22;;;;;;;5.53;3.50;;;14.40;1.00;;;;;;5061591;28;21022;-80
2021/03/31 02:18:53;;;;;;;4.80;3.13;;;14.40;1.00;;;;;;5066958;28;20510;-80
2021/03/31 02:21:22;;;;;;;6.00;3.90;;;14.40;1.00;;;;;;5055597;28;21099;-80
2021/03/31 02:23:50;;;;;;;6.13;4.60;;;14.40;1.00;;;;;;5066243;28;20806;-81
2021/03/31 02:26:17;;;;;;;5.80;3.27;;;14.40;1.00;;;;;;5062869;28;20198;-81
2021/03/31 02:28:46;;;;;;;4.17;3.77;;;14.40;1.00;;;;;;5066536;28;20457;-82
2021/03/31 02:31:15;;;;;;;4.83;3.60;;;14.30;1.00;;;;;;5067147;28;20463;-82
2021/03/31 02:33:45;;;;;;;9.00;3.47;;;14.20;1.00;;;;;;5057961;28;20487;-81
2021/03/31 02:36:13;;;;;;;4.00;3.40;;;14.20;1.00;;;;;;5070229;28;20914;-81
2021/03/31 02:38:41;;;;;;;5.83;3.33;;;14.00;1.00;;;;;;5068625;28;20526;-81
2021/03/31 02:41:10;;;;;;;4.90;3.90;;;13.90;1.00;;;;;;5060467;28;20476;-81
2021/03/31 02:43:43;;;;;;;5.27;3.80;;;13.90;1.00;;;;;;5061859;28;20460;-81
2021/03/31 02:46:16;;;;;;;4.70;3.60;;;14.00;1.00;;;;;;5054305;28;20483;-82
2021/03/31 02:48:45;;;;;;;5.10;3.50;;;13.90;1.00;;;;;;5057185;28;21475;-83
2021/03/31 02:51:13;;;;;;;4.83;3.80;;;14.00;1.00;;;;;;5063953;28;20479;-82
2021/03/31 02:53:41;;;;;;;6.05;3.90;;;13.90;1.00;;;;;;5051188;28;20465;-82
2021/03/31 02:56:11;;;;;;;5.43;4.20;;;13.90;1.00;;;;;;5054216;28;20283;-80
2021/03/31 02:58:39;;;;;;;5.57;4.17;;;14.00;1.00;;;;;;5048965;28;20512;-82
2021/03/31 03:01:07;;;;;;;6.57;4.50;;;13.90;1.00;;;;;;5053631;28;20840;-82
2021/03/31 03:03:36;;;;;;;5.20;3.80;;;13.90;1.00;;;;;;5049789;28;20451;-81
2021/03/31 03:06:04;;;;;;;6.30;3.80;;;13.90;1.00;;;;;;5051554;28;20962;-81
2021/03/31 03:08:32;;;;;;;5.53;3.77;;;13.90;1.00;;;;;;5046167;28;20527;-80
2021/03/31 03:11:02;;;;;;;4.43;3.70;;;13.80;1.00;;;;;;5049765;28;20483;-81
2021/03/31 03:13:30;;;;;;;6.33;4.87;;;13.80;1.00;;;;;;5059085;28;20556;-80
2021/03/31 03:15:59;;;;;;;5.00;3.97;;;13.80;1.00;;;;;;5050675;28;20475;-82
2021/03/31 03:18:26;;;;;;;6.00;3.90;;;13.80;1.00;;;;;;5049062;28;20503;-81
2021/03/31 03:20:54;;;;;;;4.33;3.93;;;13.80;1.00;;;;;;5052856;28;20482;-81
2021/03/31 03:23:22;;;;;;;5.37;3.70;;;13.90;1.00;;;;;;5053454;28;20441;-81
2021/03/31 03:25:53;;;;;;;4.47;3.23;;;13.80;1.00;;;;;;5055045;28;20453;-80
2021/03/31 03:28:22;;;;;;;7.10;4.30;;;13.80;1.00;;;;;;5063820;28;20455;-80
2021/03/31 03:30:49;;;;;;;7.30;3.50;;;13.70;1.00;;;;;;5049569;28;20481;-80
2021/03/31 03:33:17;;;;;;;4.67;3.40;;;13.70;1.00;;;;;;5052295;28;20480;-81
2021/03/31 03:35:45;;;;;;;6.53;4.10;;;13.70;1.00;;;;;;5068880;28;20474;-81
2021/03/31 03:38:13;;;;;;;4.20;3.83;;;13.70;1.00;;;;;;5059783;28;21079;-81
2021/03/31 03:40:43;;;;;;;7.00;3.63;;;13.70;1.00;;;;;;5055148;28;20475;-81
2021/03/31 03:43:11;;;;;;;4.70;3.70;;;13.70;1.00;;;;;;5059432;28;20474;-81
2021/03/31 03:45:42;;;;;;;4.33;3.80;;;13.60;1.00;;;;;;5057108;28;20463;-81
2021/03/31 03:48:10;;;;;;;4.30;3.90;;;13.60;1.00;;;;;;5061973;28;20542;-81
2021/03/31 03:50:37;;;;;;;6.27;4.70;;;13.50;1.00;;;;;;5055348;28;20470;-81
2021/03/31 03:53:04;;;;;;;7.03;3.87;;;13.50;1.00;;;;;;5059451;28;20470;-81
2021/03/31 03:55:35;;;;;;;6.20;4.20;;;13.50;1.00;;;;;;5054928;28;20806;-82
2021/03/31 03:58:09;;;;;;;4.43;3.47;;;13.60;1.00;;;;;;5066908;28;20501;-82
2021/03/31 04:00:37;;;;;;;4.50;3.33;;;13.50;1.00;;;;;;5053992;28;20477;-81
2021/03/31 04:03:05;;;;;;;4.43;3.70;;;13.50;1.00;;;;;;5054579;28;20447;-82
2021/03/31 04:05:32;;;;;;;6.27;4.30;;;13.50;1.00;;;;;;5053868;28;20456;-81
2021/03/31 04:07:59;;;;;;;7.80;4.77;;;13.50;1.00;;;;;;5052148;28;21223;-82
2021/03/31 04:10:28;;;;;;;5.90;5.20;;;13.50;1.00;;;;;;5063002;28;20488;-81
2021/03/31 04:12:58;;;;;;;4.43;4.03;;;13.40;1.00;;;;;;5054713;28;20483;-81
2021/03/31 04:15:27;;;;;;;5.30;3.80;;;13.40;1.00;;;;;;5054413;28;20458;-80
2021/03/31 04:17:55;;;;;;;5.87;3.93;;;13.30;1.00;;;;;;5056412;28;20469;-80
2021/03/31 04:20:24;;;;;;;5.37;4.30;;;13.40;1.00;;;;;;5056884;28;20483;-80
2021/03/31 04:22:52;;;;;;;7.03;4.60;;;13.40;1.00;;;;;;5054013;28;20443;-81
2021/03/31 04:25:22;;;;;;;4.97;4.33;;;13.40;1.00;;;;;;5066368;28;20197;-81
2021/03/31 04:27:51;;;;;;;7.37;6.67;;;13.40;1.00;;;;;;5053821;28;20464;-81
2021/03/31 04:30:21;;;;;;;6.93;6.23;;;13.40;1.00;;;;;;5068371;28;20625;-81
2021/03/31 04:32:50;;;;;;;5.23;4.83;;;13.30;1.00;;;;;;5060046;28;20454;-81
2021/03/31 04:35:19;;;;;;;6.20;5.40;;;13.30;1.00;;;;;;5063490;28;20459;-78
2021/03/31 04:37:47;;;;;;;5.30;4.30;;;13.30;1.00;;;;;;5051192;28;20482;-82
2021/03/31 04:40:17;;;;;;;8.50;5.17;;;13.30;1.00;;;;;;5061002;28;20478;-81
2021/03/31 04:42:44;;;;;;;5.83;4.57;;;13.30;1.00;;;;;;5059731;28;20468;-80
2021/03/31 04:45:13;;;;;;;6.63;5.60;;;13.30;1.00;;;;;;5054141;28;20454;-77
2021/03/31 04:47:41;;;;;;;8.63;7.10;;;13.20;1.00;;;;;;5055975;28;20560;-79
2021/03/31 04:50:11;;;;;;;4.77;4.37;;;13.20;1.00;;;;;;5059015;28;21611;-77
2021/03/31 04:52:38;;;;;;;8.23;4.70;;;13.20;1.00;;;;;;5054707;28;20450;-79
2021/03/31 04:55:07;;;;;;;6.60;4.70;;;13.20;1.00;;;;;;5054724;28;21049;-80
2021/03/31 04:57:35;;;;;;;6.50;3.80;;;13.20;1.00;;;;;;5055411;28;20455;-79
2021/03/31 05:00:04;;;;;;;6.43;4.07;;;13.20;6.90;;;;;;5046342;28;21053;-79
2021/03/31 05:02:31;;;;;;;3.87;3.47;;;13.20;1.00;;;;;;5058207;28;20833;-79
2021/03/31 05:04:59;;;;;;;7.30;4.63;;;13.20;1.00;;;;;;5056761;28;20468;-81
2021/03/31 05:07:26;;;;;;;5.47;4.40;;;13.20;1.00;;;;;;5064551;28;20455;-80
2021/03/31 05:09:53;;;;;;;6.40;4.23;;;13.20;1.00;;;;;;5048676;28;20455;-78
2021/03/31 05:12:20;;;;;;;7.43;3.80;;;13.20;1.00;;;;;;5049064;28;20517;-79
2021/03/31 05:14:48;;;;;;;6.30;4.40;;;13.20;1.00;;;;;;5073021;28;20490;-79
2021/03/31 05:17:15;;;;;;;8.27;5.20;;;13.20;1.00;;;;;;5061368;28;20444;-80
2021/03/31 05:19:42;;;;;;;4.10;3.70;;;13.30;1.00;;;;;;5065497;28;20439;-80
2021/03/31 05:22:11;;;;;;;6.70;4.30;;;13.30;1.00;;;;;;5066479;28;20554;-79
2021/03/31 05:24:38;;;;;;;4.60;4.20;;;13.20;1.00;;;;;;5064440;28;20890;-79
2021/03/31 05:27:06;;;;;;;7.40;4.70;;;13.20;1.00;;;;;;5057248;28;20457;-78
2021/03/31 05:29:34;;;;;;;5.10;4.07;;;13.20;1.00;;;;;;5063521;28;20447;-76
2021/03/31 05:32:01;;;;;;;10.43;4.07;;;13.20;1.00;;;;;;5058311;28;21025;-79
2021/03/31 05:34:28;;;;;;;5.37;4.30;;;13.10;1.00;;;;;;5062397;28;20467;-79
2021/03/31 05:36:57;;;;;;;5.07;4.67;;;13.20;1.00;;;;;;5060601;28;20556;-80
2021/03/31 05:39:25;;;;;;;6.37;4.10;;;13.20;1.00;;;;;;5052337;28;20459;-79
2021/03/31 05:41:52;;;;;;;9.60;5.30;;;13.10;1.00;;;;;;5062893;28;20483;-80
2021/03/31 05:44:20;;;;;;;6.07;4.50;;;13.20;8.40;;;;;;5070437;28;20454;-78
2021/03/31 05:46:49;;;;;;;6.10;4.67;;;13.20;1.00;;;;;;5067465;28;20952;-78
2021/03/31 05:49:17;;;;;;;4.90;4.23;;;13.20;1.00;;;;;;5057112;28;20458;-79
2021/03/31 05:51:44;;;;;;;6.40;5.23;;;13.20;1.00;;;;;;5067838;28;20543;-79
2021/03/31 05:54:12;;;;;;;6.88;5.70;;;13.20;1.00;;;;;;5070789;28;20469;-78
2021/03/31 05:56:41;;;;;;;7.80;5.57;;;13.20;1.00;;;;;;5063865;28;20207;-79
2021/03/31 05:59:10;;;;;;;10.10;5.27;;;13.20;1.00;;;;;;5060154;28;21049;-79
2021/03/31 06:01:37;;;;;;;6.10;5.07;;;13.30;1.00;;;;;;5055451;28;20496;-81
2021/03/31 06:04:05;;;;;;;7.20;5.30;;;13.30;1.00;;;;;;5058432;28;20475;-79
2021/03/31 06:06:33;;;;;;;8.07;5.97;;;13.40;1.00;;;;;;5069275;28;20492;-80
2021/03/31 06:12:48;;;;;;;7.47;5.57;;;13.40;1.00;;;;;;4968184;28;20498;-80
2021/03/31 06:15:25;;;;;;;12.53;7.80;;;13.40;1.00;;;;;;5058967;28;20482;-79
2021/03/31 06:17:55;;;;;;;13.50;9.30;;;13.50;1.70;;;;;;5066603;28;20452;-80
2021/03/31 06:20:43;;;;;;;17.73;9.63;;;13.50;1.80;;;;;;5067580;28;20716;-81
2021/03/31 06:25:58;;;;;;;24.93;12.30;;;13.70;3.00;;;;;;5056062;28;20478;-80
2021/03/31 06:28:34;;;;;;;17.80;11.83;;;13.70;3.70;;;;;;5055762;28;20452;-79
2021/03/31 06:31:22;;;;;;;16.10;10.90;;;13.80;3.40;;;;;;5057808;28;20477;-80
2021/03/31 06:33:50;;;;;;;16.87;11.07;;;13.90;3.60;;;;;;5054902;28;20481;-80
2021/03/31 06:36:18;;;;;;;15.30;10.50;;;14.00;4.90;;;;;;5059584;28;20465;-80
2021/03/31 06:38:48;;;;;;;14.00;8.90;;;14.10;4.50;;;;;;5054403;28;20793;-78
2021/03/31 06:41:26;;;;;;;15.00;10.90;;;14.10;5.80;;;;;;5062784;28;20520;-79
2021/03/31 06:44:05;;;;;;;11.93;7.43;;;14.20;6.40;;;;;;5058806;28;20538;-79
2021/03/31 06:46:41;;;;;;;13.70;8.00;;;14.30;6.60;;;;;;5064676;28;20462;-79
2021/03/31 06:49:10;;;;;;;11.07;8.13;;;14.30;5.90;;;;;;5057377;28;20526;-78
2021/03/31 06:51:37;;;;;;;13.63;8.37;;;14.30;7.10;;;;;;5056757;28;20533;-79
2021/03/31 06:54:17;;;;;;;10.40;7.60;;;14.30;7.80;;;;;;5063864;28;20484;-78
2021/03/31 06:56:45;;;;;;;13.17;7.60;;;14.40;7.20;;;;;;5056173;28;20466;-79
2021/03/31 06:59:14;;;;;;;10.20;7.70;;;14.50;7.40;;;;;;5057444;28;20461;-80
2021/03/31 07:01:42;;;;;;;11.70;7.20;;;14.60;8.80;;;;;;5063104;28;20543;-80
2021/03/31 07:04:09;;;;;;;13.23;7.70;;;14.60;9.80;;;;;;5061656;28;20969;-80
2021/03/31 07:06:37;;;;;;;9.10;6.40;;;14.70;10.90;;;;;;5058675;28;20752;-80
2021/03/31 07:09:18;;;;;;;11.47;6.80;;;14.80;11.80;;;;;;5061746;28;20468;-78
2021/03/31 07:11:45;;;;;;;10.53;6.70;;;14.90;11.50;;;;;;5057552;28;20575;-79
2021/03/31 07:14:14;;;;;;;9.33;7.70;;;15.00;12.40;;;;;;5055881;28;21021;-79
2021/03/31 07:16:43;;;;;;;13.07;8.23;;;15.00;11.30;;;;;;5065587;28;20539;-79
2021/03/31 07:19:12;;;;;;;10.30;8.50;;;15.10;13.00;;;;;;5059413;28;20465;-81
2021/03/31 07:22:00;;;;;;;9.07;6.27;;;15.20;13.30;;;;;;5052505;28;20477;-79
2021/03/31 07:24:27;;;;;;;14.10;6.70;;;15.30;14.60;;;;;;5057633;28;20456;-80
2021/03/31 07:26:55;;;;;;;9.03;6.03;;;15.40;15.10;;;;;;5061231;28;20449;-80
2021/03/31 07:29:26;;;;;;;10.30;6.70;;;15.40;15.30;;;;;;5061274;28;20453;-80
2021/03/31 07:31:55;;;;;;;20.03;7.10;;;15.60;15.60;;;;;;5051289;28;20516;-79
2021/03/31 07:34:27;;;;;;;9.53;6.37;;;15.70;17.10;;;;;;5055820;28;20481;-78
2021/03/31 07:36:55;;;;;;;13.20;8.10;;;15.80;28.00;;;;;;5061171;28;20476;-80
2021/03/31 07:39:27;;;;;;;7.30;6.33;;;16.00;19.90;;;;;;5059409;28;20454;-80
2021/03/31 07:41:56;;;;;;;11.27;7.00;;;16.10;20.70;;;;;;5060149;28;20556;-79
2021/03/31 07:44:27;;;;;;;13.07;7.00;;;16.20;20.50;;;;;;5054396;28;20554;-81
2021/03/31 07:46:57;;;;;;;14.70;6.57;;;16.40;20.50;;;;;;5064486;28;20505;-81
2021/03/31 07:49:26;;;;;;;9.70;6.63;;;16.60;22.40;;;;;;5064075;28;20508;-81
2021/03/31 07:51:59;;;;;;;11.90;6.50;;;16.70;23.40;;;;;;5056006;28;20483;-80
2021/03/31 07:54:27;;;;;;;8.47;6.40;;;17.00;25.70;;;;;;5062344;28;20839;-81
2021/03/31 07:56:57;;;;;;;9.30;6.53;;;17.20;25.30;;;;;;5062320;28;20528;-81
2021/03/31 07:59:25;;;;;;;9.77;8.00;;;17.40;23.30;;;;;;5060183;28;20551;-82
2021/03/31 08:01:56;;;;;;;10.40;6.47;;;17.50;24.40;;;;;;5066464;28;20475;-79
2021/03/31 08:04:25;;;;;;;8.60;6.27;;;17.60;25.70;;;;;;5058159;28;20535;-81
2021/03/31 08:06:55;;;;;;;7.87;6.47;;;17.80;27.50;;;;;;5057093;28;20483;-80
2021/03/31 08:09:27;;;;;;;9.10;6.03;;;18.00;28.10;;;;;;5056317;28;20451;-81
2021/03/31 08:11:59;;;;;;;9.53;6.27;;;18.20;28.10;;;;;;5053034;28;20486;-81
2021/03/31 08:14:41;;;;;;;8.10;6.33;;;18.60;31.00;;;;;;5054893;28;20463;-82
2021/03/31 08:17:28;;;;;;;7.00;5.63;;;18.80;33.00;;;;;;5058566;28;20454;-81
2021/03/31 08:19:57;;;;;;;8.40;6.27;;;19.10;35.80;;;;;;5051903;28;20462;-80
2021/03/31 08:22:37;;;;;;;7.73;6.27;;;19.20;35.70;;;;;;5055834;28;20443;-79
2021/03/31 08:25:19;;;;;;;6.77;6.17;;;19.40;36.30;;;;;;5051473;28;20447;-79
2021/03/31 08:28:01;;;;;;;7.10;5.83;;;19.40;36.60;;;;;;5052098;28;20489;-82
2021/03/31 08:30:29;;;;;;;9.63;8.00;;;19.40;36.60;;;;;;5063757;28;20889;-78
2021/03/31 08:32:58;;;;;;;7.90;6.43;;;19.40;37.20;;;;;;5062078;28;20216;-79
2021/03/31 08:35:27;;;;;;;14.43;6.77;;;19.50;38.60;;;;;;5058109;28;20474;-79
2021/03/31 08:37:54;;;;;;;7.30;6.47;;;19.60;39.10;;;;;;5054799;28;20452;-78
2021/03/31 08:40:21;;;;;;;11.40;7.20;;;19.60;38.50;;;;;;5058010;28;20490;-79
2021/03/31 08:43:04;;;;;;;9.33;6.07;;;19.60;39.60;;;;;;5077240;28;20871;-78
2021/03/31 08:45:37;;;;;;;8.83;6.60;;;19.70;39.00;;;;;;5063022;28;20450;-77
2021/03/31 08:48:08;;;;;;;9.77;6.50;;;19.70;37.00;;;;;;5055087;28;20445;-78
2021/03/31 08:50:38;;;;;;;8.00;6.20;;;19.80;39.30;;;;;;5052708;28;20475;-77
2021/03/31 08:53:09;;;;;;;8.63;6.77;;;19.90;40.90;;;;;;5060814;28;20473;-78
2021/03/31 08:55:39;;;;;;;11.73;7.17;;;20.00;41.10;;;;;;5051626;28;20857;-78
2021/03/31 08:58:08;;;;;;;9.10;6.60;;;20.00;41.60;;;;;;5056293;28;20951;-77
2021/03/31 09:00:50;;;;;;;11.30;7.23;;;20.10;43.60;;;;;;5058234;28;22474;-79
2021/03/31 09:03:19;;;;;;;9.07;7.70;;;20.20;40.80;;;;;;5060041;28;20962;-77
2021/03/31 09:05:58;;;;;;;9.97;6.30;;;20.20;41.00;;;;;;5063308;28;20450;-78
2021/03/31 09:08:26;;;;;;;8.20;6.10;;;20.30;41.60;;;;;;5053565;28;20452;-78
2021/03/31 09:10:56;;;;;;;9.27;7.30;;;20.40;41.20;;;;;;5055057;28;20483;-77
2021/03/31 09:13:25;;;;;;;12.63;7.87;;;20.40;42.20;;;;;;5056966;28;20466;-77
2021/03/31 09:15:54;;;;;;;9.40;6.87;;;20.50;43.20;;;;;;5053594;28;20478;-79
2021/03/31 09:18:23;;;;;;;9.50;7.17;;;20.60;44.10;;;;;;5052872;28;21211;-78
2021/03/31 09:20:51;;;;;;;10.40;6.43;;;20.60;43.50;;;;;;5052699;28;20536;-78
2021/03/31 09:23:27;;;;;;;6.10;5.50;;;20.70;44.30;;;;;;5054001;28;20447;-78
2021/03/31 09:26:02;;;;;;;7.40;6.07;;;20.80;44.30;;;;;;5054883;28;20451;-78
2021/03/31 09:28:31;;;;;;;10.20;6.43;;;20.80;44.30;;;;;;5052839;28;20504;-77
2021/03/31 09:31:06;;;;;;;10.13;6.43;;;20.80;45.00;;;;;;5053505;28;21006;-78
2021/03/31 09:33:41;;;;;;;9.20;6.20;;;20.90;45.20;;;;;;5057367;28;20537;-78
2021/03/31 09:36:13;;;;;;;11.30;7.13;;;20.90;43.30;;;;;;5059629;28;20487;-79
2021/03/31 09:38:43;;;;;;;10.40;5.93;;;20.90;41.80;;;;;;5046897;28;20452;-77
2021/03/31 09:41:12;;;;;;;10.70;6.07;;;20.90;44.20;;;;;;5055422;28;20821;-77
2021/03/31 09:43:39;;;;;;;8.23;6.00;;;21.00;46.00;;;;;;5059010;28;20491;-76
2021/03/31 09:46:08;;;;;;;8.52;6.38;;;21.20;47.60;;;;;;5054241;28;20454;-76
2021/03/31 09:48:36;;;;;;;8.67;5.50;;;21.30;47.50;;;;;;5058675;28;20495;-79
2021/03/31 09:51:12;;;;;;;7.33;6.30;;;21.50;47.70;;;;;;5060429;28;20475;-76
2021/03/31 09:53:40;;;;;;;6.03;4.93;;;21.50;49.40;;;;;;5063934;28;20478;-77
2021/03/31 09:56:11;;;;;;;7.00;5.47;;;21.60;48.10;;;;;;5054014;28;20636;-79
2021/03/31 09:58:40;;;;;;;9.53;5.03;;;21.60;48.80;;;;;;5056301;28;20452;-79
2021/03/31 10:01:11;;;;;;;6.03;4.70;;;21.70;50.00;;;;;;5053003;28;20679;-78
2021/03/31 10:03:41;;;;;;;7.37;5.60;;;21.80;50.30;;;;;;5062123;28;20448;-78
2021/03/31 10:06:18;;;;;;;5.70;4.07;;;21.90;51.60;;;;;;5059607;28;20457;-77
2021/03/31 10:08:46;;;;;;;9.10;4.37;;;22.00;56.90;;;;;;5057518;28;20494;-79
2021/03/31 10:11:27;;;;;;;7.30;3.90;;;22.00;61.00;;;;;;5053756;28;20474;-78
2021/03/31 10:13:55;;;;;;;5.82;5.10;;;22.10;58.10;;;;;;5051454;28;20452;-78
2021/03/31 10:16:31;;;;;;;8.50;5.40;;;22.20;59.20;;;;;;5048680;28;20201;-77
2021/03/31 10:19:01;;;;;;;5.90;4.53;;;22.30;56.30;;;;;;5055154;28;20489;-77
2021/03/31 10:21:32;;;;;;;6.77;3.93;;;22.40;59.40;;;;;;5060199;28;20480;-77
2021/03/31 10:24:01;;;;;;;9.93;5.50;;;22.40;65.00;;;;;;5052169;28;20458;-78
2021/03/31 10:26:49;;;;;;;3.30;2.40;;;22.50;64.10;;;;;;5062585;28;20445;-77
2021/03/31 10:29:44;;;;;;;4.37;2.83;;;22.60;87.00;;;;;;5054692;28;20493;-79
2021/03/31 10:32:32;;;;;;;4.17;3.37;;;22.60;90.00;;;;;;5052164;28;21040;-81
2021/03/31 10:35:00;;;;;;;9.13;3.00;;;22.70;75.60;;;;;;5050021;28;20566;-76
2021/03/31 10:37:33;;;;;;;4.33;2.20;;;22.60;81.40;;;;;;5058241;28;20457;-78
2021/03/31 10:48:55;;;;;;;4.70;3.40;;;22.80;67.50;;;;;;5053666;28;20542;-78
2021/03/31 10:51:34;;;;;;;5.00;4.17;;;22.70;66.40;;;;;;5050931;28;20588;-80
2021/03/31 10:54:05;;;;;;;6.50;3.90;;;22.80;57.60;;;;;;5053383;28;20452;-79
2021/03/31 10:56:33;;;;;;;6.63;4.03;;;22.80;60.00;;;;;;5047532;28;20603;-79
2021/03/31 10:59:01;;;;;;;4.37;2.57;;;22.90;60.80;;;;;;5056048;28;20450;-80
2021/03/31 11:01:28;;;;;;;4.67;3.73;;;22.90;65.90;;;;;;5058395;28;21037;-78
2021/03/31 11:03:55;;;;;;;5.50;4.23;;;23.00;73.80;;;;;;5056328;28;21021;-80
2021/03/31 11:06:24;;;;;;;2.50;2.30;;;23.00;72.30;;;;;;5059513;28;20438;-77
2021/03/31 11:08:52;;;;;;;7.10;4.17;;;23.10;88.40;;;;;;5055723;28;20474;-79
2021/03/31 11:11:19;;;;;;;4.87;3.63;;;23.10;77.80;;;;;;5052641;28;20580;-77
2021/03/31 11:13:46;;;;;;;6.57;4.20;;;23.10;81.10;;;;;;5064051;28;20455;-78
2021/03/31 11:16:15;;;;;;;4.67;3.43;;;23.10;75.60;;;;;;5051576;28;21115;-78
2021/03/31 11:18:51;;;;;;;5.30;3.53;;;23.20;76.30;;;;;;5058744;28;20444;-78
2021/03/31 11:27:01;;;;;;;5.80;4.93;;;23.40;69.70;;;;;;5059842;28;20542;-78
2021/03/31 11:29:34;;;;;;;5.40;3.70;;;23.50;67.00;;;;;;5058036;28;20522;-81
2021/03/31 11:32:01;;;;;;;4.50;4.10;;;23.50;66.20;;;;;;5049292;28;20489;-78
2021/03/31 11:34:28;;;;;;;5.73;2.37;;;23.50;63.50;;;;;;5056824;28;20703;-78
2021/03/31 11:36:55;;;;;;;3.90;3.60;;;23.50;83.40;;;;;;5059352;28;20872;-77
2021/03/31 11:39:23;;;;;;;7.80;4.20;;;23.50;73.90;;;;;;5049624;28;21210;-78
2021/03/31 11:41:51;;;;;;;6.90;3.93;;;23.50;94.30;;;;;;5054450;28;20478;-78
2021/03/31 11:44:18;;;;;;;4.83;3.90;;;23.50;75.50;;;;;;5058492;28;20840;-77
2021/03/31 11:46:45;;;;;;;4.40;1.90;;;23.50;79.20;;;;;;5054515;28;20575;-78
2021/03/31 11:49:12;;;;;;;3.63;2.10;;;23.60;94.00;;;;;;5054434;28;20516;-69
2021/03/31 11:51:39;;;;;;;2.70;2.20;;;23.60;89.10;;;;;;5049540;28;21017;-69
2021/03/31 11:54:07;;;;;;;4.20;2.53;;;23.60;92.90;;;;;;5049801;28;21002;-69
2021/03/31 11:56:35;;;;;;;4.60;3.77;;;23.70;86.70;;;;;;5057291;28;20454;-69
2021/03/31 11:59:03;;;;;;;7.33;4.03;;;23.70;82.70;;;;;;5061829;28;20451;-69
2021/03/31 12:01:30;;;;;;;6.23;4.20;;;23.70;75.00;;;;;;5078177;28;20969;-67
2021/03/31 12:03:57;;;;;;;8.23;3.97;;;23.70;74.30;;;;;;5065826;28;20461;-70
2021/03/31 12:06:24;;;;;;;8.13;2.80;;;23.70;71.00;;;;;;5062764;28;20549;-69
2021/03/31 12:08:53;;;;;;;3.90;3.00;;;23.70;79.30;;;;;;5063641;28;20455;-69
2021/03/31 12:11:20;;;;;;;3.63;3.10;;;23.80;84.30;;;;;;5051079;28;20936;-71
2021/03/31 12:13:48;;;;;;;3.60;2.73;;;23.90;86.40;;;;;;5057124;28;20943;-71
2021/03/31 12:16:16;;;;;;;3.73;2.73;;;23.90;88.10;;;;;;5053671;28;20544;-70
2021/03/31 12:19:09;;;;;;;4.70;2.97;;;24.00;89.30;;;;;;5059206;28;20463;-77
2021/03/31 12:21:36;;;;;;;5.83;3.57;;;23.90;85.50;;;;;;5057687;28;20855;-77
2021/03/31 12:24:04;;;;;;;4.50;2.80;;;23.90;88.20;;;;;;5063138;28;20457;-76
2021/03/31 12:26:31;;;;;;;3.40;3.10;;;23.90;91.20;;;;;;5060408;28;21016;-76
2021/03/31 12:28:59;;;;;;;5.13;4.10;;;23.90;90.90;;;;;;5065689;28;21035;-77
2021/03/31 12:31:27;;;;;;;4.90;3.60;;;23.90;88.50;;;;;;5061273;28;20463;-74
2021/03/31 12:33:54;;;;;;;7.73;5.13;;;23.90;86.30;;;;;;5059666;28;20977;-75
2021/03/31 12:36:21;;;;;;;4.83;3.20;;;23.90;78.70;;;;;;5059243;28;21010;-77
2021/03/31 12:38:48;;;;;;;3.50;2.70;;;23.90;85.00;;;;;;5051320;28;20709;-75
2021/03/31 12:41:15;;;;;;;9.37;4.93;;;23.90;90.30;;;;;;5047904;28;20532;-75
2021/03/31 12:43:42;;;;;;;6.20;4.83;;;24.00;96.90;;;;;;5057360;28;20447;-75
2021/03/31 12:46:10;;;;;;;6.70;3.13;;;24.00;87.60;;;;;;5062385;28;21136;-73
2021/03/31 12:48:38;;;;;;;5.27;3.33;;;24.00;92.00;;;;;;5058456;28;20458;-76
2021/03/31 12:51:07;;;;;;;9.93;6.40;;;24.00;93.10;;;;;;5056398;28;21086;-77
2021/03/31 12:53:39;;;;;;;5.73;3.97;;;24.00;89.20;;;;;;5062672;28;20462;-75
2021/03/31 12:56:06;;;;;;;4.73;4.23;;;24.10;91.70;;;;;;5051896;28;21312;-77
2021/03/31 12:58:39;;;;;;;4.87;4.23;;;24.10;93.30;;;;;;5049011;28;20459;-78
2021/03/31 13:01:13;;;;;;;10.37;4.73;;;24.20;91.40;;;;;;5063347;28;20524;-77
2021/03/31 13:04:58;;;;;;;6.47;3.60;;;24.10;90.50;;;;;;5057825;28;20578;-76
2021/03/31 13:07:44;;;;;;;7.80;5.40;;;24.20;93.20;;;;;;4939609;28;20453;-76
2021/03/31 13:10:31;;;;;;;4.03;3.63;;;24.20;91.60;;;;;;5059299;28;20557;-77
2021/03/31 13:13:11;;;;;;;5.53;3.67;;;24.20;93.90;;;;;;5053441;28;20574;-76
2021/03/31 13:16:00;;;;;;;5.97;4.67;;;24.20;92.60;;;;;;5050062;28;20478;-78
2021/03/31 13:24:27;;;;;;;5.00;3.67;;;24.30;91.20;;;;;;5059168;28;20447;-75
2021/03/31 13:27:04;;;;;;;3.30;2.73;;;24.40;93.20;;;;;;5060564;28;20469;-80
2021/03/31 13:33:03;;;;;;;8.53;7.13;;;24.40;91.60;;;;;;5048302;28;20950;-76
2021/03/31 13:35:34;;;;;;;5.17;4.53;;;24.30;83.50;;;;;;5045459;28;20471;-76
2021/03/31 13:38:06;;;;;;;5.60;3.43;;;24.40;91.00;;;;;;5054398;28;20459;-76
2021/03/31 13:40:34;;;;;;;5.40;3.50;;;24.40;92.60;;;;;;5059507;28;20532;-78